INFORMACIÓN METAR y TAF
METAR FOR WAAA
ADDS - METARS form results

(2320 UTC 23 May 2019)
Data provider http://aviationweather.gov/metar/data/
 
METAR text: WAAA 232300Z 20002KT 9999 FEW019 25/24 Q1011 NOSIG
Conditions at: WAAA (HASANUDDIN/UJUNG, ID) observed 2300 UTC 23 May 2019
Temperature: 25.0°C (77°F)
Dewpoint: 24.0°C (75°F) [RH = 94%]
Pressure (altimeter): 29.85 inches Hg (1011.0 mb)
Winds: from the SSW (200 degrees) at 2 MPH (2 knots; 1.0 m/s)
Visibility: 6 or more miles (10+ km)
Ceiling: at least 12,000 feet AGL
Clouds: few clouds at 1900 feet AGL
Weather: no significant weather observed at this time

METAR text: WAAA 232230Z 27002KT 9000 FEW019 25/24 Q1010 NOSIG
Conditions at: WAAA (HASANUDDIN/UJUNG, ID) observed 2230 UTC 23 May 2019
Temperature: 25.0°C (77°F)
Dewpoint: 24.0°C (75°F) [RH = 94%]
Pressure (altimeter): 29.82 inches Hg (1010.0 mb)
Winds: from the W (270 degrees) at 2 MPH (2 knots; 1.0 m/s)
Visibility: 6 miles ( 9 km)
Ceiling: at least 12,000 feet AGL
Clouds: few clouds at 1900 feet AGL
Weather: no significant weather observed at this time

Forecast for: WAAA (HASANUDDIN/UJUNG, ID)
Text: TAF WAAA 232300Z 2400/2506 28008KT 9999 SCT019
Forecast period: 0000 to 1100 UTC 24 May 2019
Forecast type: FROM: standard forecast or significant change
Winds: from the W (280 degrees) at 9 MPH (8 knots; 4.1 m/s)
Visibility: 6 or more miles 10+ km)
Ceiling: at least 12,000 feet AGL
Clouds: scattered clouds at 1900 feet AGL
Weather: no significant weather forecast for this period
Text: BECMG 2411/2413 13005KT 8000
Forecast period: 1100 UTC 24 May 2019 to 0600 UTC 25 May 2019
Forecast type: BECOMING: Conditions expected to become as follows by 1300 UTC 24 May 2019
Winds: from the SE (130 degrees) at 6 MPH (5 knots; 2.6 m/s)
Visibility: 5 miles (8 km)
Ceiling: at least 12,000 feet AGL
Clouds: scattered clouds at 1900 feet AGL
Weather: no significant weather forecast for this period

 MAPA DE AEROPUERTO

 INFORMACIÓN DE PISTA
Pista 13 Longitud 8202 ft Ancho 148 ft
Elevación 44 ft Umbral desplazado 0 ft Rumbo de pista 131
Pista 31 Longitud 8202 ft Ancho 148 ft
Elevación 36 ft Umbral desplazado 0 ft Rumbo de pista 311
Pista 03 Longitud 0 ft Ancho 0 ft
Elevación 0 ft Umbral desplazado 0 ft Rumbo de pista 29
Pista 21 Longitud 0 ft Ancho 0 ft
Elevación 0 ft Umbral desplazado 0 ft Rumbo de pista 209

 FRECUANCIAS DEL AEROPUERTO
Tipo APP Nombre UJUNG PAND Frecuencia 119.4 MHZ
Tipo ATIS Nombre ATIS Frecuencia 126.25 MHZ
Tipo INFO Nombre UJUNG INFO Frecuencia 295.6 MHZ
Tipo TWR Nombre TWR Frecuencia 118.1 MHZ

 RADIO AYUDAS DEL AEROPUERTO
Tipo VOR-DME Nombre Hasanuddin Frecuencia 114700 KHZ
Tipo NDB Nombre Hasanuddin Frecuencia 375 KHZ



              


PayPal

©2019 Oasis Virtual Airlines
Simulando desde el 2013

Oasis Líneas Aéreas Virtuales no está relacionada con ninguna compañía real.
Se trata de un entorno virtual de simulación aérea, sin ánimo de lucro.


Visitas:

VAM v2.6.2 [MOD.]